Time;durP1;ratioP1;P1;durP2;ratioP2;P2;SDS_P1;SDS_P2;PMS_P1;PMS_P2;Temp;Humidity;BMP_temperature;BMP_pressure;BME280_temperature;BME280_humidity;BME280_pressure;Samples;Min_cycle;Max_cycle;Signal;HPM_P1;HPM_P2
2023/08/30 00:02:05;;;;;;;;;;;14.90;73.00;;;;;;4991477;28;20377;-80
2023/08/30 00:04:30;;;;;;;;;;;14.80;73.00;;;;;;4991380;28;19917;-80
2023/08/30 00:06:56;;;;;;;;;;;14.80;73.10;;;;;;5008932;28;19921;-79
2023/08/30 00:09:21;;;;;;;;;;;14.80;73.10;;;;;;4991147;28;20060;-79
2023/08/30 00:11:47;;;;;;;;;;;14.80;73.10;;;;;;4991333;28;19914;-79
2023/08/30 00:14:12;;;;;;;;;;;14.80;73.20;;;;;;5008463;28;19981;-79
2023/08/30 00:16:38;;;;;;;;;;;14.80;73.10;;;;;;4991676;28;19999;-79
2023/08/30 00:19:04;;;;;;;;;;;14.80;73.10;;;;;;4991357;28;19914;-79
2023/08/30 00:21:30;;;;;;;;;;;14.80;73.20;;;;;;4991152;28;19971;-79
2023/08/30 00:23:55;;;;;;;;;;;14.80;73.20;;;;;;5008670;28;19922;-80
2023/08/30 00:26:21;;;;;;;;;;;14.80;73.20;;;;;;5007508;28;19976;-80
2023/08/30 00:28:47;;;;;;;;;;;14.80;73.20;;;;;;5008738;28;20040;-79
2023/08/30 00:31:12;;;;;;;;;;;14.80;73.20;;;;;;4990965;28;20289;-79
2023/08/30 00:33:38;;;;;;;;;;;14.80;73.20;;;;;;4991018;28;19953;-79
2023/08/30 00:36:03;;;;;;;;;;;14.80;73.10;;;;;;5008544;28;19909;-79
2023/08/30 00:38:29;;;;;;;;;;;14.70;73.10;;;;;;4990585;28;20431;-79
2023/08/30 00:40:55;;;;;;;;;;;14.70;73.10;;;;;;4990759;28;19929;-79
2023/08/30 00:43:20;;;;;;;;;;;14.60;73.10;;;;;;5007438;28;19913;-79
2023/08/30 00:45:47;;;;;;;;;;;14.50;73.10;;;;;;4990711;28;19917;-79
2023/08/30 00:48:13;;;;;;;;;;;14.50;73.20;;;;;;4990630;28;19949;-79
2023/08/30 00:50:39;;;;;;;;;;;14.50;73.20;;;;;;5008454;28;19921;-79
2023/08/30 00:53:06;;;;;;;;;;;14.40;73.20;;;;;;4990784;28;20427;-79
2023/08/30 00:55:33;;;;;;;;;;;14.30;73.10;;;;;;5009200;28;19945;-79
2023/08/30 00:57:59;;;;;;;;;;;14.30;73.20;;;;;;4994848;28;19927;-80
2023/08/30 01:00:24;;;;;;;;;;;14.20;73.10;;;;;;5012473;28;19914;-79
2023/08/30 01:02:50;;;;;;;;;;;14.20;73.20;;;;;;4994792;28;19921;-79
2023/08/30 01:05:16;;;;;;;;;;;14.20;73.40;;;;;;5012170;28;19925;-79
2023/08/30 01:07:41;;;;;;;;;;;14.30;73.60;;;;;;4994569;28;19925;-79
2023/08/30 01:10:08;;;;;;;;;;;14.40;73.60;;;;;;4994393;28;20370;-79
2023/08/30 01:12:37;;;;;;;;;;;14.50;73.50;;;;;;5010908;28;20304;-79
2023/08/30 01:15:21;;;;;;;;;;;14.60;73.40;;;;;;4994722;28;20280;-79
2023/08/30 01:17:47;;;;;;;;;;;14.70;73.40;;;;;;4994475;28;19914;-79
2023/08/30 01:20:16;;;;;;;;;;;14.70;73.30;;;;;;4994621;28;19983;-79
2023/08/30 01:22:45;;;;;;;;;;;14.80;73.30;;;;;;5011944;28;20284;-79
2023/08/30 01:25:27;;;;;;;;;;;14.80;73.20;;;;;;5011712;28;19924;-79
2023/08/30 01:27:54;;;;;;;;;;;14.80;73.20;;;;;;5011867;28;19966;-79
2023/08/30 01:30:20;;;;;;;;;;;14.90;73.20;;;;;;5012000;28;19913;-79
2023/08/30 01:32:46;;;;;;;;;;;14.90;73.20;;;;;;4994193;28;20404;-80
2023/08/30 01:35:16;;;;;;;;;;;14.90;73.20;;;;;;4994168;28;19917;-79
2023/08/30 01:37:43;;;;;;;;;;;14.90;73.10;;;;;;5011682;28;20448;-80
2023/08/30 01:40:09;;;;;;;;;;;14.90;73.20;;;;;;5011813;28;19953;-79
2023/08/30 01:42:36;;;;;;;;;;;14.90;73.20;;;;;;4993926;28;20281;-79
2023/08/30 01:45:03;;;;;;;;;;;14.90;73.20;;;;;;5011655;28;20016;-79
2023/08/30 01:47:29;;;;;;;;;;;14.90;73.20;;;;;;5011624;28;19909;-79
2023/08/30 01:49:55;;;;;;;;;;;14.90;73.20;;;;;;5012409;28;19914;-79
2023/08/30 01:52:22;;;;;;;;;;;14.90;73.20;;;;;;5011343;28;19916;-79
2023/08/30 01:54:48;;;;;;;;;;;14.90;73.20;;;;;;4993733;28;19916;-79
2023/08/30 01:57:14;;;;;;;;;;;14.90;73.20;;;;;;4993850;28;19957;-79
2023/08/30 01:59:39;;;;;;;;;;;14.90;73.20;;;;;;5011397;28;19945;-79
2023/08/30 02:02:05;;;;;;;;;;;14.90;73.20;;;;;;5011402;28;20003;-79
2023/08/30 02:04:33;;;;;;;;;;;14.90;73.20;;;;;;5010056;28;19955;-79
2023/08/30 02:07:03;;;;;;;;;;;15.00;73.30;;;;;;5010676;28;19925;-79
2023/08/30 02:09:48;;;;;;;;;;;15.00;73.30;;;;;;5010992;28;19956;-78
2023/08/30 02:12:16;;;;;;;;;;;15.00;73.30;;;;;;5010580;28;19960;-79
2023/08/30 02:14:44;;;;;;;;;;;15.00;73.30;;;;;;5011016;28;19971;-79
2023/08/30 02:17:11;;;;;;;;;;;15.00;73.30;;;;;;4993241;28;19937;-79
2023/08/30 02:19:37;;;;;;;;;;;14.90;73.20;;;;;;4993380;28;19909;-80
2023/08/30 02:22:03;;;;;;;;;;;14.90;73.20;;;;;;5010857;28;19921;-79
2023/08/30 02:24:28;;;;;;;;;;;14.90;73.20;;;;;;4993401;28;20008;-79
2023/08/30 02:26:54;;;;;;;;;;;14.90;73.20;;;;;;5010785;28;19914;-79
2023/08/30 02:29:19;;;;;;;;;;;14.90;73.30;;;;;;4993261;28;20428;-79
2023/08/30 02:31:45;;;;;;;;;;;14.90;73.30;;;;;;4993386;28;19917;-79
2023/08/30 02:34:11;;;;;;;;;;;14.80;73.30;;;;;;4992924;28;19913;-79
2023/08/30 02:36:36;;;;;;;;;;;14.80;73.30;;;;;;5010445;28;20010;-80
2023/08/30 02:39:03;;;;;;;;;;;14.80;73.40;;;;;;5010482;28;20286;-79
2023/08/30 02:41:29;;;;;;;;;;;14.70;73.30;;;;;;5010549;28;19920;-80
2023/08/30 02:43:54;;;;;;;;;;;14.70;73.40;;;;;;5010372;28;19918;-79
2023/08/30 02:46:20;;;;;;;;;;;14.60;73.30;;;;;;5010366;28;19921;-79
2023/08/30 02:48:45;;;;;;;;;;;14.60;73.30;;;;;;4992896;28;20004;-80
2023/08/30 02:51:11;;;;;;;;;;;14.60;73.40;;;;;;5010371;28;19921;-79
2023/08/30 02:53:36;;;;;;;;;;;14.60;73.40;;;;;;4992822;28;19913;-78
2023/08/30 02:56:02;;;;;;;;;;;14.50;73.40;;;;;;4976337;28;19913;-79
2023/08/30 02:58:27;;;;;;;;;;;14.50;73.90;;;;;;4992610;28;19913;-79
2023/08/30 03:00:53;;;;;;;;;;;14.50;73.40;;;;;;4992712;28;20148;-79
2023/08/30 03:03:19;;;;;;;;;;;14.50;73.50;;;;;;5010253;28;20275;-79
2023/08/30 03:05:44;;;;;;;;;;;14.50;73.50;;;;;;5010111;28;19922;-79
2023/08/30 03:08:10;;;;;;;;;;;14.50;73.50;;;;;;4976188;28;19914;-79
2023/08/30 03:10:35;;;;;;;;;;;14.50;73.50;;;;;;4992262;28;19922;-79
2023/08/30 03:13:01;;;;;;;;;;;14.50;73.50;;;;;;5008665;28;20356;-80
2023/08/30 03:15:26;;;;;;;;;;;14.50;73.40;;;;;;4992549;28;20025;-80
2023/08/30 03:17:52;;;;;;;;;;;14.50;73.40;;;;;;5009179;28;19967;-80
2023/08/30 03:20:18;;;;;;;;;;;14.50;73.50;;;;;;5009619;28;20290;-80
2023/08/30 03:22:44;;;;;;;;;;;14.50;73.50;;;;;;5011354;28;19921;-80
2023/08/30 03:25:10;;;;;;;;;;;14.50;73.50;;;;;;5011028;28;19921;-80
2023/08/30 03:27:35;;;;;;;;;;;14.50;73.50;;;;;;4992000;28;19920;-80
2023/08/30 03:30:02;;;;;;;;;;;14.40;73.50;;;;;;4991994;28;19952;-80
2023/08/30 03:32:27;;;;;;;;;;;14.40;73.50;;;;;;5009747;28;19909;-80
2023/08/30 03:34:53;;;;;;;;;;;14.40;73.50;;;;;;5009582;28;20362;-80
2023/08/30 03:37:19;;;;;;;;;;;14.30;73.50;;;;;;5009482;28;19913;-80
2023/08/30 03:39:44;;;;;;;;;;;14.30;73.50;;;;;;5009459;28;20377;-80
2023/08/30 03:42:10;;;;;;;;;;;14.30;73.50;;;;;;5009458;28;20365;-80
2023/08/30 03:44:37;;;;;;;;;;;14.30;73.50;;;;;;5008092;28;19918;-80
2023/08/30 03:47:02;;;;;;;;;;;14.30;73.60;;;;;;5009326;28;19973;-80
2023/08/30 03:49:29;;;;;;;;;;;14.30;73.60;;;;;;4991569;28;20032;-80
2023/08/30 03:51:55;;;;;;;;;;;14.30;73.60;;;;;;5008139;28;20004;-80
2023/08/30 03:54:20;;;;;;;;;;;14.40;73.60;;;;;;4991480;28;20405;-80
2023/08/30 03:56:46;;;;;;;;;;;14.40;73.50;;;;;;5007715;28;19918;-80
2023/08/30 03:59:12;;;;;;;;;;;14.40;73.50;;;;;;4991349;28;19953;-80
2023/08/30 04:01:37;;;;;;;;;;;14.40;73.50;;;;;;5008839;28;19967;-79
2023/08/30 04:04:03;;;;;;;;;;;14.50;73.50;;;;;;4991336;28;19920;-79
2023/08/30 04:06:28;;;;;;;;;;;14.40;73.50;;;;;;5011560;28;20399;-81
2023/08/30 04:08:56;;;;;;;;;;;14.40;73.50;;;;;;5013698;28;21647;-83
2023/08/30 04:11:22;;;;;;;;;;;14.40;73.50;;;;;;4997457;28;19932;-81
2023/08/30 04:13:47;;;;;;;;;;;14.40;73.50;;;;;;5015153;28;20107;-82
2023/08/30 04:16:13;;;;;;;;;;;14.40;73.50;;;;;;5014944;28;19920;-81
2023/08/30 04:18:38;;;;;;;;;;;14.30;73.50;;;;;;4999891;28;19918;-80
2023/08/30 04:21:06;;;;;;;;;;;14.30;73.50;;;;;;4999323;28;19957;-81
2023/08/30 04:23:31;;;;;;;;;;;14.20;73.50;;;;;;5000987;28;20001;-81
2023/08/30 04:25:57;;;;;;;;;;;14.10;73.50;;;;;;4997760;28;20390;-80
2023/08/30 04:28:22;;;;;;;;;;;14.10;73.50;;;;;;5015887;28;20000;-81
2023/08/30 04:30:48;;;;;;;;;;;14.00;73.50;;;;;;4999499;28;19917;-81
2023/08/30 04:33:14;;;;;;;;;;;14.00;73.50;;;;;;5002075;28;19913;-82
2023/08/30 04:35:39;;;;;;;;;;;14.00;73.60;;;;;;5020215;28;19909;-80
2023/08/30 04:38:05;;;;;;;;;;;13.90;73.50;;;;;;5021565;28;19913;-81
2023/08/30 04:40:32;;;;;;;;;;;13.90;73.60;;;;;;5008364;28;19913;-80
2023/08/30 04:42:58;;;;;;;;;;;13.80;73.60;;;;;;5004189;28;19944;-81
2023/08/30 04:45:24;;;;;;;;;;;13.80;73.60;;;;;;5023057;28;19913;-81
2023/08/30 04:47:49;;;;;;;;;;;13.80;73.70;;;;;;5002566;28;20388;-82
2023/08/30 04:50:16;;;;;;;;;;;13.70;73.60;;;;;;5020215;28;19914;-82
2023/08/30 04:52:42;;;;;;;;;;;13.70;73.60;;;;;;5021652;28;19948;-81
2023/08/30 04:55:08;;;;;;;;;;;13.70;73.70;;;;;;5021630;28;19913;-81
2023/08/30 04:57:33;;;;;;;;;;;13.60;73.60;;;;;;5010975;28;19894;-81
2023/08/30 05:00:00;;;;;;;;;;;13.60;73.70;;;;;;5015088;28;19953;-82
2023/08/30 05:02:26;;;;;;;;;;;13.60;73.70;;;;;;5011382;28;19948;-81
2023/08/30 05:04:52;;;;;;;;;;;13.60;73.70;;;;;;5013342;28;19919;-81
2023/08/30 05:07:18;;;;;;;;;;;13.50;73.60;;;;;;4998657;28;19914;-81
2023/08/30 05:09:43;;;;;;;;;;;13.50;73.60;;;;;;5016519;28;20401;-81
2023/08/30 05:12:09;;;;;;;;;;;13.50;73.60;;;;;;5020558;28;19925;-81
2023/08/30 05:14:34;;;;;;;;;;;13.50;73.60;;;;;;5006948;28;19914;-81
2023/08/30 05:17:00;;;;;;;;;;;13.40;73.60;;;;;;5004960;28;19937;-81
2023/08/30 05:19:25;;;;;;;;;;;13.40;73.60;;;;;;5016310;28;19918;-81
2023/08/30 05:21:54;;;;;;;;;;;13.40;73.70;;;;;;5016969;28;19959;-82
2023/08/30 05:24:20;;;;;;;;;;;13.40;73.70;;;;;;5001150;28;19924;-80
2023/08/30 05:26:46;;;;;;;;;;;13.50;73.80;;;;;;4999195;28;19932;-81
2023/08/30 05:29:13;;;;;;;;;;;13.50;73.90;;;;;;5022277;28;19913;-82
2023/08/30 05:31:38;;;;;;;;;;;13.50;73.80;;;;;;5006084;28;19992;-82
2023/08/30 05:34:04;;;;;;;;;;;13.60;73.90;;;;;;5018920;28;20266;-81
2023/08/30 05:36:30;;;;;;;;;;;13.70;73.90;;;;;;5004998;28;19957;-82
2023/08/30 05:38:55;;;;;;;;;;;13.80;73.90;;;;;;5002763;28;19914;-81
2023/08/30 05:41:21;;;;;;;;;;;13.80;73.90;;;;;;5019736;28;19921;-81
2023/08/30 05:43:46;;;;;;;;;;;13.90;73.80;;;;;;5006818;28;19914;-82
2023/08/30 05:46:14;;;;;;;;;;;14.00;73.90;;;;;;5005345;28;20284;-82
2023/08/30 05:48:40;;;;;;;;;;;14.10;73.80;;;;;;5022715;28;19913;-83
2023/08/30 05:51:06;;;;;;;;;;;14.20;73.90;;;;;;5010046;28;19916;-82
2023/08/30 05:53:31;;;;;;;;;;;14.30;73.80;;;;;;5028173;28;19920;-82
2023/08/30 05:55:57;;;;;;;;;;;14.40;73.80;;;;;;5028739;28;19924;-82
2023/08/30 05:58:22;;;;;;;;;;;14.50;73.80;;;;;;5008558;28;19953;-82
2023/08/30 06:00:48;;;;;;;;;;;14.60;73.70;;;;;;5025618;28;20405;-82
2023/08/30 06:03:13;;;;;;;;;;;14.60;73.60;;;;;;5018567;28;20365;-82
2023/08/30 06:05:39;;;;;;;;;;;14.70;73.60;;;;;;5006855;28;19924;-81
2023/08/30 06:08:05;;;;;;;;;;;14.70;73.60;;;;;;5009897;28;19917;-81
2023/08/30 06:10:30;;;;;;;;;;;14.80;73.70;;;;;;5010755;28;19922;-79
2023/08/30 06:12:56;;;;;;;;;;;14.90;73.70;;;;;;5023670;28;19927;-81
2023/08/30 06:15:21;;;;;;;;;;;15.00;73.80;;;;;;5004701;28;19941;-82
2023/08/30 06:17:47;;;;;;;;;;;15.00;73.70;;;;;;5001783;28;19909;-82
2023/08/30 06:20:12;;;;;;;;;;;15.10;73.70;;;;;;5005204;28;19917;-83
2023/08/30 06:22:39;;;;;;;;;;;15.10;73.60;;;;;;5022111;28;19917;-80
2023/08/30 06:25:06;;;;;;;;;;;15.10;73.70;;;;;;5021427;28;19924;-81
2023/08/30 06:27:32;;;;;;;;;;;15.20;73.70;;;;;;5022574;28;19964;-80
2023/08/30 06:29:57;;;;;;;;;;;15.20;73.70;;;;;;5023052;28;20339;-81
2023/08/30 06:32:23;;;;;;;;;;;15.20;73.70;;;;;;5028064;28;19993;-81
2023/08/30 06:34:49;;;;;;;;;;;15.30;73.70;;;;;;5016666;28;19923;-82
2023/08/30 06:37:14;;;;;;;;;;;15.40;73.80;;;;;;5013704;28;20363;-78
2023/08/30 06:39:40;;;;;;;;;;;15.40;73.80;;;;;;4997265;28;19937;-81
2023/08/30 06:42:05;;;;;;;;;;;15.40;73.70;;;;;;5014842;28;19914;-81
2023/08/30 06:44:31;;;;;;;;;;;15.50;73.80;;;;;;5014823;28;19988;-82
2023/08/30 06:46:57;;;;;;;;;;;15.50;73.80;;;;;;5017179;28;20393;-82
2023/08/30 06:49:23;;;;;;;;;;;15.60;73.80;;;;;;5018336;28;19928;-83
2023/08/30 06:51:48;;;;;;;;;;;15.60;73.80;;;;;;5000134;28;19920;-82
2023/08/30 06:54:14;;;;;;;;;;;15.60;73.90;;;;;;5019711;28;19917;-81
2023/08/30 06:56:39;;;;;;;;;;;15.70;73.90;;;;;;5001757;28;19941;-82
2023/08/30 06:59:05;;;;;;;;;;;15.70;73.90;;;;;;5021662;28;19922;-82
2023/08/30 07:01:30;;;;;;;;;;;15.90;73.90;;;;;;4997766;28;20350;-78
2023/08/30 07:03:56;;;;;;;;;;;15.90;73.90;;;;;;5009541;28;20374;-79
2023/08/30 07:06:22;;;;;;;;;;;16.10;74.00;;;;;;5008167;28;19952;-79
2023/08/30 07:08:47;;;;;;;;;;;16.30;74.00;;;;;;5008530;28;19932;-79
2023/08/30 07:11:13;;;;;;;;;;;16.50;73.90;;;;;;5007706;28;19944;-79
2023/08/30 07:13:38;;;;;;;;;;;16.70;73.90;;;;;;4991619;28;19914;-78
2023/08/30 07:16:04;;;;;;;;;;;17.00;73.90;;;;;;5009287;28;19940;-79
2023/08/30 07:18:29;;;;;;;;;;;17.30;73.80;;;;;;4991253;28;19918;-66
2023/08/30 07:20:55;;;;;;;;;;;17.60;73.70;;;;;;5009158;28;19910;-78
2023/08/30 07:23:20;;;;;;;;;;;17.90;73.70;;;;;;4991332;28;19913;-79
2023/08/30 07:25:46;;;;;;;;;;;18.10;73.70;;;;;;5009235;28;19921;-78
2023/08/30 07:28:12;;;;;;;;;;;18.40;73.80;;;;;;5009271;28;19959;-78
2023/08/30 07:30:37;;;;;;;;;;;18.80;73.70;;;;;;5009029;28;19917;-78
2023/08/30 07:33:04;;;;;;;;;;;19.10;73.60;;;;;;4991808;28;19914;-77
2023/08/30 07:35:30;;;;;;;;;;;19.30;73.30;;;;;;5008886;28;20236;-78
2023/08/30 07:37:55;;;;;;;;;;;19.40;73.30;;;;;;5008751;28;19914;-78
2023/08/30 07:40:24;;;;;;;;;;;19.40;73.30;;;;;;5007564;28;19914;-77
2023/08/30 07:42:49;;;;;;;;;;;19.50;73.40;;;;;;5008954;28;19937;-78
2023/08/30 07:45:15;;;;;;;;;;;19.70;73.50;;;;;;5008832;28;20278;-78
2023/08/30 07:47:40;;;;;;;;;;;19.80;73.30;;;;;;5008628;28;19913;-79
2023/08/30 07:50:06;;;;;;;;;;;19.70;73.30;;;;;;4990783;28;20309;-79
2023/08/30 07:52:32;;;;;;;;;;;19.80;73.40;;;;;;5008291;28;20031;-79
2023/08/30 07:54:57;;;;;;;;;;;19.90;73.60;;;;;;5007272;28;19914;-77
2023/08/30 07:57:23;;;;;;;;;;;19.90;73.60;;;;;;5007971;28;19914;-78
2023/08/30 07:59:49;;;;;;;;;;;20.10;73.90;;;;;;5008190;28;19993;-80
2023/08/30 08:02:14;;;;;;;;;;;20.30;74.00;;;;;;5008876;28;20393;-79
2023/08/30 08:04:40;;;;;;;;;;;20.50;73.90;;;;;;5006893;28;20339;-79
2023/08/30 08:07:05;;;;;;;;;;;20.60;73.50;;;;;;5007493;28;19929;-79
2023/08/30 08:09:31;;;;;;;;;;;20.70;73.50;;;;;;5009405;28;19913;-79
2023/08/30 08:11:57;;;;;;;;;;;20.60;73.40;;;;;;5008243;28;19917;-79
2023/08/30 08:14:23;;;;;;;;;;;20.50;73.50;;;;;;5008270;28;19913;-79
2023/08/30 08:16:48;;;;;;;;;;;20.60;73.90;;;;;;4990541;28;20413;-80
2023/08/30 08:19:14;;;;;;;;;;;21.00;74.30;;;;;;5007108;28;20016;-79
2023/08/30 08:21:40;;;;;;;;;;;21.80;75.50;;;;;;5007990;28;19913;-79
2023/08/30 08:24:05;;;;;;;;;;;23.10;75.30;;;;;;4989935;28;19917;-79
2023/08/30 08:26:31;;;;;;;;;;;24.10;74.80;;;;;;5008098;28;19909;-79
2023/08/30 08:28:56;;;;;;;;;;;25.10;74.20;;;;;;5007873;28;19943;-80
2023/08/30 08:31:22;;;;;;;;;;;25.80;73.90;;;;;;4990287;28;19913;-77
2023/08/30 08:33:52;;;;;;;;;;;26.40;73.80;;;;;;5007891;28;19917;-80
2023/08/30 08:36:18;;;;;;;;;;;27.00;73.50;;;;;;5006371;28;19914;-79
2023/08/30 08:38:44;;;;;;;;;;;27.40;73.60;;;;;;4990099;28;19968;-79
2023/08/30 08:41:12;;;;;;;;;;;28.00;73.90;;;;;;5007546;28;19914;-80
2023/08/30 08:43:39;;;;;;;;;;;28.60;74.10;;;;;;5007402;28;19914;-80
2023/08/30 08:46:06;;;;;;;;;;;29.00;73.70;;;;;;5007559;28;19921;-79
2023/08/30 08:48:33;;;;;;;;;;;29.10;73.40;;;;;;5007455;28;20004;-79
2023/08/30 08:51:00;;;;;;;;;;;29.10;73.70;;;;;;5008490;28;20273;-79
2023/08/30 08:53:25;;;;;;;;;;;28.80;73.30;;;;;;5008965;28;20071;-78
2023/08/30 08:55:52;;;;;;;;;;;28.20;73.20;;;;;;5009971;28;19960;-79
2023/08/30 08:58:17;;;;;;;;;;;27.60;73.30;;;;;;5007694;28;19996;-79
2023/08/30 09:00:44;;;;;;;;;;;27.10;73.50;;;;;;5008549;28;20385;-80
2023/08/30 09:03:10;;;;;;;;;;;26.70;74.00;;;;;;5009761;28;19928;-79
2023/08/30 09:05:38;;;;;;;;;;;26.40;74.10;;;;;;5009966;28;20346;-80
2023/08/30 09:08:04;;;;;;;;;;;26.00;74.00;;;;;;5009531;28;20005;-78
2023/08/30 09:10:32;;;;;;;;;;;25.70;74.20;;;;;;5009318;28;19921;-79
2023/08/30 09:12:57;;;;;;;;;;;25.30;74.10;;;;;;5009640;28;20348;-78
2023/08/30 09:15:30;;;;;;;;;;;25.00;74.10;;;;;;5016719;28;20023;-76
2023/08/30 09:17:56;;;;;;;;;;;24.70;74.20;;;;;;5031918;28;19909;-76
2023/08/30 09:20:21;;;;;;;;;;;24.50;74.40;;;;;;5015329;28;19996;-79
2023/08/30 09:22:47;;;;;;;;;;;24.30;74.30;;;;;;4999365;28;20373;-82
2023/08/30 09:25:24;;;;;;;;;;;24.20;74.70;;;;;;5033456;28;20291;-85
2023/08/30 09:27:50;;;;;;;;;;;24.10;74.80;;;;;;5033565;28;20374;-80
2023/08/30 09:30:21;;;;;;;;;;;24.10;75.30;;;;;;4998552;28;19913;-81
2023/08/30 09:32:48;;;;;;;;;;;24.30;75.70;;;;;;5015992;28;19917;-87
2023/08/30 09:35:14;;;;;;;;;;;24.60;76.00;;;;;;5015557;28;19909;-80
2023/08/30 09:37:39;;;;;;;;;;;24.80;75.30;;;;;;5031142;28;20016;-81
2023/08/30 09:40:05;;;;;;;;;;;25.10;75.50;;;;;;5013361;28;19936;-80
2023/08/30 09:42:31;;;;;;;;;;;25.60;75.60;;;;;;5016748;28;19936;-81
2023/08/30 09:44:57;;;;;;;;;;;26.10;75.50;;;;;;5020846;28;19913;-80
2023/08/30 09:47:24;;;;;;;;;;;26.70;75.60;;;;;;5014996;28;20436;-80
2023/08/30 09:49:51;;;;;;;;;;;27.60;75.60;;;;;;5032605;28;19913;-79
2023/08/30 09:52:18;;;;;;;;;;;28.20;75.50;;;;;;5014942;28;20004;-81
2023/08/30 09:54:45;;;;;;;;;;;28.50;75.10;;;;;;5032627;28;19913;-81
2023/08/30 09:57:10;;;;;;;;;;;28.50;74.60;;;;;;5032978;28;19956;-80
2023/08/30 09:59:37;;;;;;;;;;;28.40;74.60;;;;;;5014851;28;19909;-81
2023/08/30 10:02:04;;;;;;;;;;;28.70;75.10;;;;;;5015273;28;19925;-80
2023/08/30 10:04:30;;;;;;;;;;;29.00;74.90;;;;;;5033601;28;19985;-80
2023/08/30 10:06:57;;;;;;;;;;;29.10;74.70;;;;;;5015445;28;19913;-77
2023/08/30 10:09:24;;;;;;;;;;;29.10;74.80;;;;;;5014613;28;19977;-81
2023/08/30 10:11:50;;;;;;;;;;;29.10;74.70;;;;;;5017409;28;20169;-80
2023/08/30 10:14:16;;;;;;;;;;;29.00;74.40;;;;;;5035920;28;19923;-79
2023/08/30 10:16:46;;;;;;;;;;;28.40;74.10;;;;;;5001274;28;19921;-82
2023/08/30 10:19:18;;;;;;;;;;;27.70;74.20;;;;;;5017482;28;19909;-78
2023/08/30 10:21:44;;;;;;;;;;;27.00;74.90;;;;;;5033304;28;19959;-81
2023/08/30 10:24:11;;;;;;;;;;;26.50;75.10;;;;;;5032708;28;19973;-80
2023/08/30 10:26:37;;;;;;;;;;;26.20;75.10;;;;;;5014759;28;19909;-79
2023/08/30 10:29:03;;;;;;;;;;;26.00;75.20;;;;;;5031224;28;19909;-79
2023/08/30 10:31:29;;;;;;;;;;;26.20;75.90;;;;;;5033371;28;20334;-78
2023/08/30 10:33:55;;;;;;;;;;;26.90;76.70;;;;;;5015295;28;19941;-77
2023/08/30 10:36:24;;;;;;;;;;;27.80;76.50;;;;;;5031000;28;20227;-80
2023/08/30 10:38:50;;;;;;;;;;;28.40;76.10;;;;;;5013605;28;19920;-67
2023/08/30 10:41:23;;;;;;;;;;;28.90;75.50;;;;;;5014805;28;20332;-81
2023/08/30 10:43:55;;;;;;;;;;;29.10;75.00;;;;;;4998499;28;20385;-82
2023/08/30 10:46:33;;;;;;;;;;;29.00;74.90;;;;;;5019304;28;19936;-82
2023/08/30 10:49:09;;;;;;;;;;;29.00;75.00;;;;;;4998395;28;19953;-79
2023/08/30 10:51:37;;;;;;;;;;;29.10;75.40;;;;;;5012720;28;19914;-83
2023/08/30 10:54:10;;;;;;;;;;;29.20;75.60;;;;;;4996621;28;20379;-83
2023/08/30 10:56:46;;;;;;;;;;;29.50;75.70;;;;;;4998745;28;19916;-79
2023/08/30 10:59:18;;;;;;;;;;;29.90;75.70;;;;;;5013777;28;19983;-81
2023/08/30 11:01:45;;;;;;;;;;;29.90;75.40;;;;;;4994888;28;19909;-86
2023/08/30 11:04:12;;;;;;;;;;;29.70;76.30;;;;;;5029835;28;19909;-85
2023/08/30 11:06:38;;;;;;;;;;;29.90;77.10;;;;;;5017223;28;19994;-86
2023/08/30 11:09:04;;;;;;;;;;;30.30;78.10;;;;;;5036309;28;19913;-85
2023/08/30 11:11:30;;;;;;;;;;;30.90;77.90;;;;;;5038521;28;19928;-85
2023/08/30 11:14:03;;;;;;;;;;;31.40;77.90;;;;;;5018424;28;19924;-86
2023/08/30 11:16:29;;;;;;;;;;;32.00;77.30;;;;;;5021876;28;19921;-81
2023/08/30 11:18:54;;;;;;;;;;;31.80;75.80;;;;;;5025474;28;20419;-84
2023/08/30 11:21:20;;;;;;;;;;;31.00;74.90;;;;;;5028609;28;19920;-75
2023/08/30 11:23:46;;;;;;;;;;;30.20;74.80;;;;;;5014615;28;19951;-78
2023/08/30 11:26:12;;;;;;;;;;;29.50;75.10;;;;;;5013758;28;19921;-78
2023/08/30 11:28:43;;;;;;;;;;;29.20;75.80;;;;;;4997547;28;20262;-79
2023/08/30 11:31:09;;;;;;;;;;;29.10;76.00;;;;;;5031378;28;19920;-77
2023/08/30 11:33:34;;;;;;;;;;;28.90;75.60;;;;;;5017899;28;19966;-82
2023/08/30 11:36:01;;;;;;;;;;;28.60;75.40;;;;;;5014359;28;19912;-82
2023/08/30 11:38:26;;;;;;;;;;;28.40;75.40;;;;;;5014240;28;19934;-86
2023/08/30 11:40:52;;;;;;;;;;;28.10;74.90;;;;;;5015990;28;19926;-78
2023/08/30 11:43:18;;;;;;;;;;;27.60;74.30;;;;;;5015591;28;19967;-84
2023/08/30 11:45:43;;;;;;;;;;;27.00;74.20;;;;;;5015616;28;19913;-83
2023/08/30 11:48:09;;;;;;;;;;;26.50;74.30;;;;;;5032605;28;19917;-83
2023/08/30 11:50:35;;;;;;;;;;;26.10;74.60;;;;;;5016414;28;19909;-83
2023/08/30 11:53:00;;;;;;;;;;;25.90;74.90;;;;;;5017088;28;19909;-78
2023/08/30 11:55:26;;;;;;;;;;;25.90;75.10;;;;;;5033649;28;19913;-81
2023/08/30 11:57:52;;;;;;;;;;;25.90;75.00;;;;;;5019139;28;19913;-79
2023/08/30 12:00:18;;;;;;;;;;;25.90;75.10;;;;;;5012569;28;19960;-76
2023/08/30 12:02:45;;;;;;;;;;;25.90;74.80;;;;;;5016345;28;19913;-81
2023/08/30 12:05:12;;;;;;;;;;;25.90;74.90;;;;;;5033233;28;19932;-82
2023/08/30 12:07:38;;;;;;;;;;;25.80;74.50;;;;;;5031545;28;20321;-80
2023/08/30 12:10:05;;;;;;;;;;;25.80;74.30;;;;;;5014715;28;19932;-81
2023/08/30 12:12:30;;;;;;;;;;;25.70;74.10;;;;;;5013513;28;19936;-86
2023/08/30 12:14:56;;;;;;;;;;;25.50;73.80;;;;;;5015814;28;19917;-85
2023/08/30 12:17:22;;;;;;;;;;;25.50;74.10;;;;;;5035493;28;19980;-85
2023/08/30 12:19:55;;;;;;;;;;;25.60;74.40;;;;;;4998337;28;19951;-84
2023/08/30 12:22:20;;;;;;;;;;;25.60;74.40;;;;;;5036754;28;19916;-85
2023/08/30 12:24:46;;;;;;;;;;;25.60;74.20;;;;;;5005627;28;19922;-85
2023/08/30 12:27:15;;;;;;;;;;;25.60;74.10;;;;;;5039197;28;19951;-85
2023/08/30 12:29:41;;;;;;;;;;;25.60;73.70;;;;;;5015220;28;19920;-79
2023/08/30 12:32:07;;;;;;;;;;;25.40;73.60;;;;;;5013248;28;19909;-76
2023/08/30 12:34:34;;;;;;;;;;;25.20;73.60;;;;;;5029901;28;20540;-79
2023/08/30 12:37:00;;;;;;;;;;;25.10;73.60;;;;;;5012813;28;19909;-81
2023/08/30 12:39:25;;;;;;;;;;;25.00;73.50;;;;;;4996681;28;19914;-78
2023/08/30 12:41:51;;;;;;;;;;;24.90;73.40;;;;;;5030013;28;19935;-80
2023/08/30 12:44:16;;;;;;;;;;;24.80;73.50;;;;;;5032577;28;19956;-82
2023/08/30 12:46:42;;;;;;;;;;;24.80;73.80;;;;;;5033784;28;20011;-80
2023/08/30 12:49:08;;;;;;;;;;;24.80;74.10;;;;;;5033109;28;19914;-80
2023/08/30 12:51:33;;;;;;;;;;;24.90;74.20;;;;;;5013760;28;19935;-78
2023/08/30 12:53:59;;;;;;;;;;;25.00;74.10;;;;;;4996159;28;19917;-78
2023/08/30 12:56:24;;;;;;;;;;;25.40;74.50;;;;;;5029603;28;19916;-79
2023/08/30 12:58:51;;;;;;;;;;;25.70;74.30;;;;;;5032579;28;19901;-80
2023/08/30 13:01:16;;;;;;;;;;;25.90;74.00;;;;;;5017871;28;19985;-84
2023/08/30 13:03:42;;;;;;;;;;;25.90;73.80;;;;;;5034384;28;19964;-82
2023/08/30 13:06:07;;;;;;;;;;;25.80;73.70;;;;;;5033936;28;19921;-82
2023/08/30 13:08:33;;;;;;;;;;;25.80;73.70;;;;;;5013379;28;19920;-71
2023/08/30 13:10:59;;;;;;;;;;;25.60;73.50;;;;;;5031561;28;19921;-84
2023/08/30 13:13:25;;;;;;;;;;;25.50;73.40;;;;;;5031240;28;19962;-80
2023/08/30 13:15:50;;;;;;;;;;;25.50;74.20;;;;;;5015405;28;20292;-79
2023/08/30 13:18:16;;;;;;;;;;;25.50;74.00;;;;;;5030308;28;19913;-77
2023/08/30 13:20:42;;;;;;;;;;;25.50;74.20;;;;;;5012145;28;19919;-82
2023/08/30 13:23:07;;;;;;;;;;;25.70;74.20;;;;;;5033494;28;19913;-84
2023/08/30 13:25:33;;;;;;;;;;;25.70;73.90;;;;;;5030485;28;20039;-85
2023/08/30 13:27:58;;;;;;;;;;;25.70;73.80;;;;;;4997314;28;19959;-83
2023/08/30 13:30:24;;;;;;;;;;;25.70;73.70;;;;;;4997266;28;20015;-84
2023/08/30 13:32:50;;;;;;;;;;;25.70;73.70;;;;;;5016143;28;19918;-83
2023/08/30 13:35:15;;;;;;;;;;;25.70;73.70;;;;;;4994843;28;19921;-82
2023/08/30 13:37:41;;;;;;;;;;;25.70;73.70;;;;;;4976712;28;19924;-83
2023/08/30 13:40:07;;;;;;;;;;;25.60;73.60;;;;;;4977782;28;19914;-81
2023/08/30 13:42:33;;;;;;;;;;;25.50;73.60;;;;;;5023369;28;19966;-82
2023/08/30 13:44:58;;;;;;;;;;;25.50;73.60;;;;;;5030690;28;19951;-81
2023/08/30 13:47:24;;;;;;;;;;;25.40;73.70;;;;;;5045198;28;20274;-82
2023/08/30 13:49:49;;;;;;;;;;;25.40;73.60;;;;;;5029588;28;19920;-81
2023/08/30 13:52:15;;;;;;;;;;;25.40;73.60;;;;;;5011712;28;20392;-82
2023/08/30 13:54:41;;;;;;;;;;;25.30;73.40;;;;;;5029319;28;19932;-82
2023/08/30 13:57:07;;;;;;;;;;;25.10;73.30;;;;;;5029482;28;20004;-82
2023/08/30 13:59:32;;;;;;;;;;;25.00;73.40;;;;;;4998896;28;19921;-81
2023/08/30 14:01:58;;;;;;;;;;;24.90;73.30;;;;;;5028078;28;19960;-79
2023/08/30 14:04:25;;;;;;;;;;;24.70;73.10;;;;;;4998904;28;19963;-78
2023/08/30 14:06:51;;;;;;;;;;;24.40;73.00;;;;;;5032151;28;20255;-79
2023/08/30 14:09:16;;;;;;;;;;;24.30;73.30;;;;;;5047663;28;19909;-78
2023/08/30 14:11:42;;;;;;;;;;;24.20;73.30;;;;;;5031396;28;19971;-81